sensor_id;sensor_type;location;lat;lon;timestamp;P1;durP1;ratioP1;P2;durP2;ratioP2
8791;SDS011;4432;50.890;4.744;2023-06-10T00:00:42;7.07;;;5.00;;
8791;SDS011;4432;50.890;4.744;2023-06-10T00:03:09;6.30;;;5.00;;
8791;SDS011;4432;50.890;4.744;2023-06-10T00:05:35;4.93;;;4.53;;
8791;SDS011;4432;50.890;4.744;2023-06-10T00:08:04;7.97;;;4.67;;
8791;SDS011;4432;50.890;4.744;2023-06-10T00:10:37;6.57;;;4.90;;
8791;SDS011;4432;50.890;4.744;2023-06-10T00:13:03;5.63;;;4.67;;
8791;SDS011;4432;50.890;4.744;2023-06-10T00:15:30;4.83;;;4.30;;
8791;SDS011;4432;50.890;4.744;2023-06-10T00:17:56;7.33;;;4.80;;
8791;SDS011;4432;50.890;4.744;2023-06-10T00:20:22;5.67;;;5.03;;
8791;SDS011;4432;50.890;4.744;2023-06-10T00:22:52;5.27;;;4.77;;
8791;SDS011;4432;50.890;4.744;2023-06-10T00:25:18;6.40;;;5.00;;
8791;SDS011;4432;50.890;4.744;2023-06-10T00:27:44;5.87;;;5.27;;
8791;SDS011;4432;50.890;4.744;2023-06-10T00:30:10;6.97;;;5.17;;
8791;SDS011;4432;50.890;4.744;2023-06-10T00:32:36;5.30;;;4.73;;
8791;SDS011;4432;50.890;4.744;2023-06-10T00:35:03;5.83;;;5.23;;
8791;SDS011;4432;50.890;4.744;2023-06-10T00:37:29;6.90;;;4.87;;
8791;SDS011;4432;50.890;4.744;2023-06-10T00:39:55;6.03;;;5.10;;
8791;SDS011;4432;50.890;4.744;2023-06-10T00:42:21;5.63;;;5.03;;
8791;SDS011;4432;50.890;4.744;2023-06-10T00:44:53;7.33;;;5.07;;
8791;SDS011;4432;50.890;4.744;2023-06-10T00:47:19;5.97;;;5.37;;
8791;SDS011;4432;50.890;4.744;2023-06-10T00:49:46;6.23;;;4.97;;
8791;SDS011;4432;50.890;4.744;2023-06-10T00:52:13;5.33;;;4.83;;
8791;SDS011;4432;50.890;4.744;2023-06-10T00:54:41;6.33;;;5.53;;
8791;SDS011;4432;50.890;4.744;2023-06-10T00:57:07;7.63;;;5.13;;
8791;SDS011;4432;50.890;4.744;2023-06-10T00:59:33;6.07;;;5.20;;
8791;SDS011;4432;50.890;4.744;2023-06-10T01:01:59;7.40;;;4.70;;
8791;SDS011;4432;50.890;4.744;2023-06-10T01:04:25;7.70;;;5.17;;
8791;SDS011;4432;50.890;4.744;2023-06-10T01:06:57;5.30;;;4.80;;
8791;SDS011;4432;50.890;4.744;2023-06-10T01:15:18;6.97;;;5.20;;
8791;SDS011;4432;50.890;4.744;2023-06-10T01:20:27;6.03;;;5.43;;
8791;SDS011;4432;50.890;4.744;2023-06-10T01:22:57;5.93;;;5.10;;
8791;SDS011;4432;50.890;4.744;2023-06-10T01:25:25;5.90;;;5.13;;
8791;SDS011;4432;50.890;4.744;2023-06-10T01:28:16;5.43;;;4.93;;
8791;SDS011;4432;50.890;4.744;2023-06-10T01:33:27;10.40;;;5.30;;
8791;SDS011;4432;50.890;4.744;2023-06-10T01:35:57;6.10;;;5.27;;
8791;SDS011;4432;50.890;4.744;2023-06-10T01:38:25;7.97;;;5.80;;
8791;SDS011;4432;50.890;4.744;2023-06-10T01:40:54;5.97;;;5.37;;
8791;SDS011;4432;50.890;4.744;2023-06-10T01:43:21;5.30;;;4.80;;
8791;SDS011;4432;50.890;4.744;2023-06-10T01:45:48;6.70;;;5.60;;
8791;SDS011;4432;50.890;4.744;2023-06-10T01:48:14;8.13;;;5.93;;
8791;SDS011;4432;50.890;4.744;2023-06-10T01:50:39;9.00;;;5.40;;
8791;SDS011;4432;50.890;4.744;2023-06-10T01:53:05;8.60;;;5.43;;
8791;SDS011;4432;50.890;4.744;2023-06-10T01:55:31;7.23;;;5.57;;
8791;SDS011;4432;50.890;4.744;2023-06-10T01:57:57;9.17;;;6.10;;
8791;SDS011;4432;50.890;4.744;2023-06-10T02:00:22;6.17;;;5.57;;
8791;SDS011;4432;50.890;4.744;2023-06-10T02:02:48;8.97;;;6.00;;
8791;SDS011;4432;50.890;4.744;2023-06-10T02:05:14;6.00;;;5.40;;
8791;SDS011;4432;50.890;4.744;2023-06-10T02:07:40;8.50;;;5.53;;
8791;SDS011;4432;50.890;4.744;2023-06-10T02:10:06;6.67;;;5.97;;
8791;SDS011;4432;50.890;4.744;2023-06-10T02:12:32;5.87;;;5.27;;
8791;SDS011;4432;50.890;4.744;2023-06-10T02:14:58;8.90;;;5.67;;
8791;SDS011;4432;50.890;4.744;2023-06-10T02:17:24;6.30;;;5.70;;
8791;SDS011;4432;50.890;4.744;2023-06-10T02:19:50;8.90;;;5.93;;
8791;SDS011;4432;50.890;4.744;2023-06-10T02:22:21;7.63;;;5.73;;
8791;SDS011;4432;50.890;4.744;2023-06-10T02:24:48;6.00;;;5.40;;
8791;SDS011;4432;50.890;4.744;2023-06-10T02:27:15;6.50;;;5.83;;
8791;SDS011;4432;50.890;4.744;2023-06-10T02:29:41;6.57;;;5.67;;
8791;SDS011;4432;50.890;4.744;2023-06-10T02:32:08;7.53;;;6.03;;
8791;SDS011;4432;50.890;4.744;2023-06-10T02:34:35;7.17;;;5.77;;
8791;SDS011;4432;50.890;4.744;2023-06-10T02:37:01;6.17;;;5.57;;
8791;SDS011;4432;50.890;4.744;2023-06-10T02:39:27;10.70;;;6.07;;
8791;SDS011;4432;50.890;4.744;2023-06-10T02:41:53;7.80;;;6.10;;
8791;SDS011;4432;50.890;4.744;2023-06-10T02:44:20;7.90;;;6.43;;
8791;SDS011;4432;50.890;4.744;2023-06-10T02:46:46;7.63;;;5.90;;
8791;SDS011;4432;50.890;4.744;2023-06-10T02:49:12;8.23;;;6.07;;
8791;SDS011;4432;50.890;4.744;2023-06-10T02:51:38;8.50;;;6.20;;
8791;SDS011;4432;50.890;4.744;2023-06-10T02:54:04;6.80;;;6.13;;
8791;SDS011;4432;50.890;4.744;2023-06-10T02:56:30;8.73;;;6.47;;
8791;SDS011;4432;50.890;4.744;2023-06-10T02:58:56;7.40;;;6.40;;
8791;SDS011;4432;50.890;4.744;2023-06-10T03:01:23;6.57;;;5.87;;
8791;SDS011;4432;50.890;4.744;2023-06-10T03:03:48;6.67;;;5.90;;
8791;SDS011;4432;50.890;4.744;2023-06-10T03:06:15;7.10;;;6.40;;
8791;SDS011;4432;50.890;4.744;2023-06-10T03:08:42;8.80;;;6.73;;
8791;SDS011;4432;50.890;4.744;2023-06-10T03:11:08;8.10;;;6.33;;
8791;SDS011;4432;50.890;4.744;2023-06-10T03:13:34;7.10;;;5.73;;
8791;SDS011;4432;50.890;4.744;2023-06-10T03:15:59;6.70;;;6.10;;
8791;SDS011;4432;50.890;4.744;2023-06-10T03:18:26;8.90;;;6.53;;
8791;SDS011;4432;50.890;4.744;2023-06-10T03:20:52;7.23;;;6.23;;
8791;SDS011;4432;50.890;4.744;2023-06-10T03:23:18;10.27;;;6.23;;
8791;SDS011;4432;50.890;4.744;2023-06-10T03:25:44;7.93;;;6.40;;
8791;SDS011;4432;50.890;4.744;2023-06-10T03:28:10;7.53;;;6.60;;
8791;SDS011;4432;50.890;4.744;2023-06-10T03:30:36;9.50;;;6.57;;
8791;SDS011;4432;50.890;4.744;2023-06-10T03:33:02;10.33;;;6.27;;
8791;SDS011;4432;50.890;4.744;2023-06-10T03:35:28;9.87;;;7.00;;
8791;SDS011;4432;50.890;4.744;2023-06-10T03:37:54;11.83;;;6.73;;
8791;SDS011;4432;50.890;4.744;2023-06-10T03:40:20;6.10;;;5.50;;
8791;SDS011;4432;50.890;4.744;2023-06-10T03:42:46;9.47;;;6.63;;
8791;SDS011;4432;50.890;4.744;2023-06-10T03:45:12;9.00;;;6.67;;
8791;SDS011;4432;50.890;4.744;2023-06-10T03:47:38;10.43;;;6.77;;
8791;SDS011;4432;50.890;4.744;2023-06-10T03:50:06;8.33;;;6.50;;
8791;SDS011;4432;50.890;4.744;2023-06-10T03:52:33;11.13;;;6.83;;
8791;SDS011;4432;50.890;4.744;2023-06-10T03:55:00;7.30;;;6.67;;
8791;SDS011;4432;50.890;4.744;2023-06-10T03:57:25;6.90;;;6.17;;
8791;SDS011;4432;50.890;4.744;2023-06-10T03:59:52;8.47;;;6.47;;
8791;SDS011;4432;50.890;4.744;2023-06-10T04:02:17;9.37;;;6.80;;
8791;SDS011;4432;50.890;4.744;2023-06-10T04:04:43;8.90;;;6.27;;
8791;SDS011;4432;50.890;4.744;2023-06-10T04:07:09;10.57;;;6.70;;
8791;SDS011;4432;50.890;4.744;2023-06-10T04:09:36;7.57;;;6.77;;
8791;SDS011;4432;50.890;4.744;2023-06-10T04:12:02;8.77;;;7.13;;
8791;SDS011;4432;50.890;4.744;2023-06-10T04:14:31;7.80;;;6.80;;
8791;SDS011;4432;50.890;4.744;2023-06-10T04:16:56;9.67;;;6.73;;
8791;SDS011;4432;50.890;4.744;2023-06-10T04:19:22;10.10;;;6.53;;
8791;SDS011;4432;50.890;4.744;2023-06-10T04:21:48;8.73;;;6.90;;
8791;SDS011;4432;50.890;4.744;2023-06-10T04:24:14;9.50;;;6.97;;
8791;SDS011;4432;50.890;4.744;2023-06-10T04:26:39;7.23;;;6.47;;
8791;SDS011;4432;50.890;4.744;2023-06-10T04:29:05;9.73;;;6.30;;
8791;SDS011;4432;50.890;4.744;2023-06-10T04:31:31;9.17;;;7.20;;
8791;SDS011;4432;50.890;4.744;2023-06-10T04:33:57;8.37;;;7.17;;
8791;SDS011;4432;50.890;4.744;2023-06-10T04:36:23;9.83;;;7.33;;
8791;SDS011;4432;50.890;4.744;2023-06-10T04:38:49;8.17;;;6.40;;
8791;SDS011;4432;50.890;4.744;2023-06-10T04:41:17;7.40;;;6.63;;
8791;SDS011;4432;50.890;4.744;2023-06-10T04:43:43;8.80;;;6.87;;
8791;SDS011;4432;50.890;4.744;2023-06-10T04:46:09;7.57;;;6.27;;
8791;SDS011;4432;50.890;4.744;2023-06-10T04:48:35;11.07;;;7.07;;
8791;SDS011;4432;50.890;4.744;2023-06-10T04:51:02;8.53;;;7.13;;
8791;SDS011;4432;50.890;4.744;2023-06-10T04:53:27;8.93;;;7.03;;
8791;SDS011;4432;50.890;4.744;2023-06-10T04:55:53;8.97;;;6.20;;
8791;SDS011;4432;50.890;4.744;2023-06-10T04:58:19;7.33;;;6.47;;
8791;SDS011;4432;50.890;4.744;2023-06-10T05:00:45;7.70;;;6.50;;
8791;SDS011;4432;50.890;4.744;2023-06-10T05:03:11;7.53;;;6.17;;
8791;SDS011;4432;50.890;4.744;2023-06-10T05:05:36;8.13;;;7.07;;
8791;SDS011;4432;50.890;4.744;2023-06-10T05:08:02;12.67;;;6.70;;
8791;SDS011;4432;50.890;4.744;2023-06-10T05:10:28;8.00;;;7.00;;
8791;SDS011;4432;50.890;4.744;2023-06-10T05:12:57;8.33;;;7.17;;
8791;SDS011;4432;50.890;4.744;2023-06-10T05:15:23;7.87;;;7.07;;
8791;SDS011;4432;50.890;4.744;2023-06-10T05:17:49;8.50;;;7.33;;
8791;SDS011;4432;50.890;4.744;2023-06-10T05:20:18;8.03;;;6.57;;
8791;SDS011;4432;50.890;4.744;2023-06-10T05:22:44;9.70;;;7.03;;
8791;SDS011;4432;50.890;4.744;2023-06-10T05:25:11;10.47;;;7.20;;
8791;SDS011;4432;50.890;4.744;2023-06-10T05:27:37;7.23;;;6.53;;
8791;SDS011;4432;50.890;4.744;2023-06-10T05:30:03;8.07;;;6.63;;
8791;SDS011;4432;50.890;4.744;2023-06-10T05:32:30;10.10;;;6.90;;
8791;SDS011;4432;50.890;4.744;2023-06-10T05:34:56;9.27;;;6.53;;
8791;SDS011;4432;50.890;4.744;2023-06-10T05:37:22;8.47;;;6.33;;
8791;SDS011;4432;50.890;4.744;2023-06-10T05:39:47;7.17;;;6.27;;
8791;SDS011;4432;50.890;4.744;2023-06-10T05:42:13;6.37;;;5.77;;
8791;SDS011;4432;50.890;4.744;2023-06-10T05:44:39;10.80;;;7.20;;
8791;SDS011;4432;50.890;4.744;2023-06-10T05:47:05;9.83;;;6.40;;
8791;SDS011;4432;50.890;4.744;2023-06-10T05:49:31;7.50;;;6.67;;
8791;SDS011;4432;50.890;4.744;2023-06-10T05:51:57;7.33;;;6.23;;
8791;SDS011;4432;50.890;4.744;2023-06-10T05:54:24;8.10;;;6.87;;
8791;SDS011;4432;50.890;4.744;2023-06-10T05:56:50;8.80;;;6.57;;
8791;SDS011;4432;50.890;4.744;2023-06-10T05:59:16;7.57;;;5.90;;
8791;SDS011;4432;50.890;4.744;2023-06-10T06:01:42;7.60;;;5.77;;
8791;SDS011;4432;50.890;4.744;2023-06-10T06:04:08;7.63;;;6.33;;
8791;SDS011;4432;50.890;4.744;2023-06-10T06:06:34;6.77;;;6.07;;
8791;SDS011;4432;50.890;4.744;2023-06-10T06:09:03;6.53;;;5.83;;
8791;SDS011;4432;50.890;4.744;2023-06-10T06:11:29;7.70;;;6.17;;
8791;SDS011;4432;50.890;4.744;2023-06-10T06:13:55;8.90;;;5.80;;
8791;SDS011;4432;50.890;4.744;2023-06-10T06:16:21;6.30;;;5.70;;
8791;SDS011;4432;50.890;4.744;2023-06-10T06:18:47;7.97;;;5.67;;
8791;SDS011;4432;50.890;4.744;2023-06-10T06:21:13;7.33;;;5.97;;
8791;SDS011;4432;50.890;4.744;2023-06-10T06:23:38;8.90;;;6.23;;
8791;SDS011;4432;50.890;4.744;2023-06-10T06:26:04;7.03;;;6.10;;
8791;SDS011;4432;50.890;4.744;2023-06-10T06:28:31;7.03;;;5.63;;
8791;SDS011;4432;50.890;4.744;2023-06-10T06:30:57;6.83;;;6.00;;
8791;SDS011;4432;50.890;4.744;2023-06-10T06:33:22;6.77;;;6.00;;
8791;SDS011;4432;50.890;4.744;2023-06-10T06:35:48;6.27;;;5.67;;
8791;SDS011;4432;50.890;4.744;2023-06-10T06:38:14;7.77;;;5.63;;
8791;SDS011;4432;50.890;4.744;2023-06-10T06:40:40;6.67;;;5.40;;
8791;SDS011;4432;50.890;4.744;2023-06-10T06:43:06;6.73;;;5.60;;
8791;SDS011;4432;50.890;4.744;2023-06-10T06:45:31;6.03;;;5.43;;
8791;SDS011;4432;50.890;4.744;2023-06-10T06:47:59;7.07;;;5.47;;
8791;SDS011;4432;50.890;4.744;2023-06-10T06:50:25;7.93;;;6.27;;
8791;SDS011;4432;50.890;4.744;2023-06-10T06:52:50;6.63;;;5.30;;
8791;SDS011;4432;50.890;4.744;2023-06-10T06:55:16;7.77;;;4.97;;
8791;SDS011;4432;50.890;4.744;2023-06-10T06:57:42;6.47;;;5.67;;
8791;SDS011;4432;50.890;4.744;2023-06-10T07:00:08;6.80;;;5.17;;
8791;SDS011;4432;50.890;4.744;2023-06-10T07:02:34;5.57;;;4.97;;
8791;SDS011;4432;50.890;4.744;2023-06-10T07:05:01;5.50;;;4.87;;
8791;SDS011;4432;50.890;4.744;2023-06-10T07:07:26;7.67;;;5.23;;
8791;SDS011;4432;50.890;4.744;2023-06-10T07:09:52;7.93;;;5.40;;
8791;SDS011;4432;50.890;4.744;2023-06-10T07:12:18;5.80;;;5.20;;
8791;SDS011;4432;50.890;4.744;2023-06-10T07:14:44;6.07;;;5.47;;
8791;SDS011;4432;50.890;4.744;2023-06-10T07:17:10;5.63;;;5.13;;
8791;SDS011;4432;50.890;4.744;2023-06-10T07:19:36;5.43;;;4.93;;
8791;SDS011;4432;50.890;4.744;2023-06-10T07:22:02;6.33;;;5.47;;
8791;SDS011;4432;50.890;4.744;2023-06-10T07:24:28;6.03;;;4.90;;
8791;SDS011;4432;50.890;4.744;2023-06-10T07:26:54;5.67;;;4.97;;
8791;SDS011;4432;50.890;4.744;2023-06-10T07:29:19;6.00;;;5.40;;
8791;SDS011;4432;50.890;4.744;2023-06-10T07:31:45;8.40;;;5.03;;
8791;SDS011;4432;50.890;4.744;2023-06-10T07:34:11;5.17;;;4.77;;
8791;SDS011;4432;50.890;4.744;2023-06-10T07:36:37;6.20;;;5.03;;
8791;SDS011;4432;50.890;4.744;2023-06-10T07:39:02;7.40;;;5.07;;
8791;SDS011;4432;50.890;4.744;2023-06-10T07:41:29;5.73;;;5.13;;
8791;SDS011;4432;50.890;4.744;2023-06-10T07:43:55;6.17;;;5.57;;
8791;SDS011;4432;50.890;4.744;2023-06-10T07:46:21;5.87;;;5.30;;
8791;SDS011;4432;50.890;4.744;2023-06-10T07:48:48;4.70;;;4.30;;
8791;SDS011;4432;50.890;4.744;2023-06-10T07:51:15;5.40;;;4.83;;
8791;SDS011;4432;50.890;4.744;2023-06-10T07:53:41;8.50;;;4.47;;
8791;SDS011;4432;50.890;4.744;2023-06-10T07:56:07;8.57;;;5.33;;
8791;SDS011;4432;50.890;4.744;2023-06-10T07:58:33;10.43;;;5.30;;
8791;SDS011;4432;50.890;4.744;2023-06-10T08:00:59;7.43;;;4.70;;
8791;SDS011;4432;50.890;4.744;2023-06-10T08:03:25;6.60;;;4.80;;
8791;SDS011;4432;50.890;4.744;2023-06-10T08:05:51;5.30;;;4.80;;
8791;SDS011;4432;50.890;4.744;2023-06-10T08:08:17;5.37;;;4.87;;
8791;SDS011;4432;50.890;4.744;2023-06-10T08:10:42;5.60;;;4.30;;
8791;SDS011;4432;50.890;4.744;2023-06-10T08:13:08;6.33;;;4.27;;
8791;SDS011;4432;50.890;4.744;2023-06-10T08:15:34;7.33;;;4.70;;
8791;SDS011;4432;50.890;4.744;2023-06-10T08:18:00;4.80;;;4.40;;
8791;SDS011;4432;50.890;4.744;2023-06-10T08:20:26;5.07;;;4.37;;
8791;SDS011;4432;50.890;4.744;2023-06-10T08:22:52;5.83;;;4.37;;
8791;SDS011;4432;50.890;4.744;2023-06-10T08:25:17;4.80;;;4.30;;
8791;SDS011;4432;50.890;4.744;2023-06-10T08:27:43;5.93;;;4.70;;
8791;SDS011;4432;50.890;4.744;2023-06-10T08:30:09;7.40;;;4.40;;
8791;SDS011;4432;50.890;4.744;2023-06-10T08:32:36;4.47;;;4.07;;
8791;SDS011;4432;50.890;4.744;2023-06-10T08:35:02;5.67;;;3.93;;
8791;SDS011;4432;50.890;4.744;2023-06-10T08:37:29;6.27;;;4.33;;
8791;SDS011;4432;50.890;4.744;2023-06-10T08:39:54;5.47;;;3.70;;
8791;SDS011;4432;50.890;4.744;2023-06-10T08:42:33;13.07;;;4.07;;
8791;SDS011;4432;50.890;4.744;2023-06-10T08:45:15;4.17;;;3.87;;
8791;SDS011;4432;50.890;4.744;2023-06-10T08:47:45;3.90;;;3.50;;
8791;SDS011;4432;50.890;4.744;2023-06-10T08:50:15;6.53;;;4.13;;
8791;SDS011;4432;50.890;4.744;2023-06-10T08:52:42;4.30;;;3.90;;
8791;SDS011;4432;50.890;4.744;2023-06-10T08:55:23;4.43;;;4.03;;
8791;SDS011;4432;50.890;4.744;2023-06-10T08:57:54;5.93;;;3.90;;
8791;SDS011;4432;50.890;4.744;2023-06-10T09:00:20;5.13;;;3.35;;
8791;SDS011;4432;50.890;4.744;2023-06-10T09:02:46;4.63;;;3.85;;
8791;SDS011;4432;50.890;4.744;2023-06-10T09:05:12;5.15;;;3.70;;
8791;SDS011;4432;50.890;4.744;2023-06-10T09:07:39;8.73;;;4.00;;
8791;SDS011;4432;50.890;4.744;2023-06-10T09:10:05;4.28;;;3.95;;
8791;SDS011;4432;50.890;4.744;2023-06-10T09:12:35;4.30;;;3.90;;
8791;SDS011;4432;50.890;4.744;2023-06-10T09:15:03;4.50;;;4.10;;
8791;SDS011;4432;50.890;4.744;2023-06-10T09:17:30;4.35;;;3.65;;
8791;SDS011;4432;50.890;4.744;2023-06-10T09:19:57;4.40;;;4.00;;
8791;SDS011;4432;50.890;4.744;2023-06-10T09:22:24;4.75;;;4.35;;
8791;SDS011;4432;50.890;4.744;2023-06-10T09:24:52;4.85;;;4.22;;
8791;SDS011;4432;50.890;4.744;2023-06-10T09:27:30;4.97;;;4.32;;
8791;SDS011;4432;50.890;4.744;2023-06-10T09:29:59;4.03;;;3.63;;
8791;SDS011;4432;50.890;4.744;2023-06-10T09:32:25;5.03;;;4.30;;
8791;SDS011;4432;50.890;4.744;2023-06-10T09:34:52;7.22;;;4.57;;
8791;SDS011;4432;50.890;4.744;2023-06-10T09:37:21;4.75;;;4.32;;
8791;SDS011;4432;50.890;4.744;2023-06-10T09:40:07;4.75;;;4.35;;
8791;SDS011;4432;50.890;4.744;2023-06-10T09:42:35;4.70;;;4.25;;
8791;SDS011;4432;50.890;4.744;2023-06-10T09:45:02;4.57;;;4.18;;
8791;SDS011;4432;50.890;4.744;2023-06-10T09:47:29;7.75;;;4.32;;
8791;SDS011;4432;50.890;4.744;2023-06-10T09:49:55;8.05;;;5.32;;
8791;SDS011;4432;50.890;4.744;2023-06-10T09:52:21;5.22;;;4.68;;
8791;SDS011;4432;50.890;4.744;2023-06-10T09:54:48;5.18;;;4.65;;
8791;SDS011;4432;50.890;4.744;2023-06-10T09:57:14;5.15;;;4.65;;
8791;SDS011;4432;50.890;4.744;2023-06-10T09:59:42;6.88;;;4.28;;
8791;SDS011;4432;50.890;4.744;2023-06-10T10:02:13;4.72;;;4.32;;
8791;SDS011;4432;50.890;4.744;2023-06-10T10:04:43;6.25;;;5.43;;
8791;SDS011;4432;50.890;4.744;2023-06-10T10:07:10;6.13;;;4.43;;
8791;SDS011;4432;50.890;4.744;2023-06-10T10:09:40;6.03;;;4.35;;
8791;SDS011;4432;50.890;4.744;2023-06-10T10:12:10;5.90;;;4.63;;
8791;SDS011;4432;50.890;4.744;2023-06-10T10:14:38;5.63;;;4.10;;
8791;SDS011;4432;50.890;4.744;2023-06-10T10:17:07;4.90;;;4.38;;
8791;SDS011;4432;50.890;4.744;2023-06-10T10:19:36;4.90;;;4.50;;
8791;SDS011;4432;50.890;4.744;2023-06-10T10:22:10;4.85;;;4.35;;
8791;SDS011;4432;50.890;4.744;2023-06-10T10:24:46;5.20;;;4.57;;
8791;SDS011;4432;50.890;4.744;2023-06-10T10:27:29;7.03;;;4.78;;
8791;SDS011;4432;50.890;4.744;2023-06-10T10:30:00;5.10;;;4.60;;
8791;SDS011;4432;50.890;4.744;2023-06-10T10:32:32;6.63;;;4.57;;
8791;SDS011;4432;50.890;4.744;2023-06-10T10:35:12;6.00;;;4.50;;
8791;SDS011;4432;50.890;4.744;2023-06-10T10:37:43;5.47;;;4.85;;
8791;SDS011;4432;50.890;4.744;2023-06-10T10:40:09;4.85;;;4.45;;
8791;SDS011;4432;50.890;4.744;2023-06-10T10:42:36;5.53;;;4.70;;
8791;SDS011;4432;50.890;4.744;2023-06-10T10:45:03;6.38;;;4.38;;
8791;SDS011;4432;50.890;4.744;2023-06-10T10:47:30;4.68;;;4.28;;
8791;SDS011;4432;50.890;4.744;2023-06-10T10:49:58;4.90;;;4.40;;
8791;SDS011;4432;50.890;4.744;2023-06-10T10:52:25;4.75;;;4.30;;
8791;SDS011;4432;50.890;4.744;2023-06-10T10:55:14;5.10;;;3.97;;
8791;SDS011;4432;50.890;4.744;2023-06-10T10:57:40;6.70;;;4.32;;
8791;SDS011;4432;50.890;4.744;2023-06-10T11:00:06;4.75;;;4.18;;
8791;SDS011;4432;50.890;4.744;2023-06-10T11:02:42;7.00;;;4.45;;
8791;SDS011;4432;50.890;4.744;2023-06-10T11:05:16;9.23;;;4.32;;
8791;SDS011;4432;50.890;4.744;2023-06-10T11:08:03;4.95;;;4.45;;
8791;SDS011;4432;50.890;4.744;2023-06-10T11:10:29;5.80;;;4.90;;
8791;SDS011;4432;50.890;4.744;2023-06-10T11:12:56;4.28;;;3.88;;
8791;SDS011;4432;50.890;4.744;2023-06-10T11:15:24;4.93;;;4.35;;
8791;SDS011;4432;50.890;4.744;2023-06-10T11:18:07;5.78;;;4.45;;
8791;SDS011;4432;50.890;4.744;2023-06-10T11:34:22;4.50;;;4.10;;
8791;SDS011;4432;50.890;4.744;2023-06-10T11:36:48;4.82;;;4.25;;
8791;SDS011;4432;50.890;4.744;2023-06-10T11:39:14;4.47;;;4.07;;
8791;SDS011;4432;50.890;4.744;2023-06-10T11:41:40;4.43;;;3.97;;
8791;SDS011;4432;50.890;4.744;2023-06-10T11:44:10;5.18;;;4.68;;
8791;SDS011;4432;50.890;4.744;2023-06-10T11:46:37;5.65;;;4.20;;
8791;SDS011;4432;50.890;4.744;2023-06-10T11:49:04;5.13;;;3.95;;
8791;SDS011;4432;50.890;4.744;2023-06-10T11:51:37;4.57;;;4.18;;
8791;SDS011;4432;50.890;4.744;2023-06-10T11:54:05;4.72;;;4.00;;
8791;SDS011;4432;50.890;4.744;2023-06-10T11:56:33;4.57;;;4.10;;
8791;SDS011;4432;50.890;4.744;2023-06-10T12:01:33;3.83;;;3.42;;
8791;SDS011;4432;50.890;4.744;2023-06-10T12:04:08;3.78;;;3.47;;
8791;SDS011;4432;50.890;4.744;2023-06-10T12:09:18;6.00;;;3.95;;
8791;SDS011;4432;50.890;4.744;2023-06-10T12:11:49;3.95;;;3.65;;
8791;SDS011;4432;50.890;4.744;2023-06-10T12:14:49;6.63;;;4.00;;
8791;SDS011;4432;50.890;4.744;2023-06-10T12:17:17;3.90;;;3.50;;
8791;SDS011;4432;50.890;4.744;2023-06-10T12:19:42;6.45;;;3.88;;
8791;SDS011;4432;50.890;4.744;2023-06-10T12:22:08;5.10;;;3.60;;
8791;SDS011;4432;50.890;4.744;2023-06-10T12:24:43;4.97;;;4.10;;
8791;SDS011;4432;50.890;4.744;2023-06-10T12:27:13;6.75;;;3.55;;
8791;SDS011;4432;50.890;4.744;2023-06-10T12:29:39;4.97;;;3.75;;
8791;SDS011;4432;50.890;4.744;2023-06-10T12:32:15;4.22;;;3.90;;
8791;SDS011;4432;50.890;4.744;2023-06-10T12:34:41;4.05;;;3.65;;
8791;SDS011;4432;50.890;4.744;2023-06-10T12:37:11;3.83;;;3.53;;
8791;SDS011;4432;50.890;4.744;2023-06-10T12:39:40;4.53;;;4.13;;
8791;SDS011;4432;50.890;4.744;2023-06-10T12:42:12;4.20;;;3.80;;
8791;SDS011;4432;50.890;4.744;2023-06-10T12:44:38;8.65;;;3.90;;
8791;SDS011;4432;50.890;4.744;2023-06-10T12:47:09;4.53;;;4.13;;
8791;SDS011;4432;50.890;4.744;2023-06-10T12:49:38;4.47;;;4.07;;
8791;SDS011;4432;50.890;4.744;2023-06-10T12:52:04;5.28;;;4.07;;
8791;SDS011;4432;50.890;4.744;2023-06-10T12:54:31;4.40;;;4.00;;
8791;SDS011;4432;50.890;4.744;2023-06-10T12:56:57;4.78;;;4.38;;
8791;SDS011;4432;50.890;4.744;2023-06-10T12:59:23;5.00;;;4.18;;
8791;SDS011;4432;50.890;4.744;2023-06-10T13:01:49;4.30;;;3.90;;
8791;SDS011;4432;50.890;4.744;2023-06-10T13:04:19;4.38;;;3.97;;
8791;SDS011;4432;50.890;4.744;2023-06-10T13:06:46;5.25;;;3.78;;
8791;SDS011;4432;50.890;4.744;2023-06-10T13:09:14;4.07;;;3.67;;
8791;SDS011;4432;50.890;4.744;2023-06-10T13:11:40;4.32;;;3.92;;
8791;SDS011;4432;50.890;4.744;2023-06-10T13:14:07;4.10;;;3.70;;
8791;SDS011;4432;50.890;4.744;2023-06-10T13:16:34;5.75;;;3.92;;
8791;SDS011;4432;50.890;4.744;2023-06-10T13:19:03;5.43;;;4.22;;
8791;SDS011;4432;50.890;4.744;2023-06-10T13:21:31;5.38;;;4.05;;
8791;SDS011;4432;50.890;4.744;2023-06-10T13:23:58;4.40;;;4.00;;
8791;SDS011;4432;50.890;4.744;2023-06-10T13:26:23;4.55;;;3.97;;
8791;SDS011;4432;50.890;4.744;2023-06-10T13:28:49;6.43;;;4.38;;
8791;SDS011;4432;50.890;4.744;2023-06-10T13:31:15;6.80;;;3.85;;
8791;SDS011;4432;50.890;4.744;2023-06-10T13:33:41;4.35;;;3.78;;
8791;SDS011;4432;50.890;4.744;2023-06-10T13:36:08;5.07;;;4.57;;
8791;SDS011;4432;50.890;4.744;2023-06-10T13:38:34;4.68;;;4.28;;
8791;SDS011;4432;50.890;4.744;2023-06-10T13:41:00;4.30;;;3.90;;
8791;SDS011;4432;50.890;4.744;2023-06-10T13:43:26;4.13;;;3.72;;
8791;SDS011;4432;50.890;4.744;2023-06-10T13:45:52;4.68;;;4.13;;
8791;SDS011;4432;50.890;4.744;2023-06-10T13:48:18;8.82;;;3.42;;
8791;SDS011;4432;50.890;4.744;2023-06-10T13:50:45;4.32;;;3.92;;
8791;SDS011;4432;50.890;4.744;2023-06-10T13:53:11;4.90;;;4.35;;
8791;SDS011;4432;50.890;4.744;2023-06-10T13:55:37;4.90;;;3.78;;
8791;SDS011;4432;50.890;4.744;2023-06-10T13:58:03;6.97;;;4.40;;
8791;SDS011;4432;50.890;4.744;2023-06-10T14:00:29;4.43;;;4.00;;
8791;SDS011;4432;50.890;4.744;2023-06-10T14:02:54;6.65;;;3.85;;
8791;SDS011;4432;50.890;4.744;2023-06-10T14:05:20;6.22;;;4.35;;
8791;SDS011;4432;50.890;4.744;2023-06-10T14:07:46;4.10;;;3.80;;
8791;SDS011;4432;50.890;4.744;2023-06-10T14:10:11;4.22;;;3.83;;
8791;SDS011;4432;50.890;4.744;2023-06-10T14:12:37;6.07;;;4.75;;
8791;SDS011;4432;50.890;4.744;2023-06-10T14:15:04;5.90;;;3.95;;
8791;SDS011;4432;50.890;4.744;2023-06-10T14:17:30;4.47;;;4.07;;
8791;SDS011;4432;50.890;4.744;2023-06-10T14:19:56;6.68;;;4.05;;
8791;SDS011;4432;50.890;4.744;2023-06-10T14:22:21;4.65;;;3.95;;
8791;SDS011;4432;50.890;4.744;2023-06-10T14:24:47;7.10;;;4.28;;
8791;SDS011;4432;50.890;4.744;2023-06-10T14:27:13;4.20;;;3.80;;
8791;SDS011;4432;50.890;4.744;2023-06-10T14:29:39;4.85;;;3.67;;
8791;SDS011;4432;50.890;4.744;2023-06-10T14:32:06;4.60;;;4.03;;
8791;SDS011;4432;50.890;4.744;2023-06-10T14:34:32;4.68;;;4.03;;
8791;SDS011;4432;50.890;4.744;2023-06-10T14:37:01;4.35;;;3.95;;
8791;SDS011;4432;50.890;4.744;2023-06-10T14:39:29;4.38;;;3.97;;
8791;SDS011;4432;50.890;4.744;2023-06-10T14:41:55;4.18;;;3.47;;
8791;SDS011;4432;50.890;4.744;2023-06-10T14:44:20;4.22;;;3.83;;
8791;SDS011;4432;50.890;4.744;2023-06-10T14:46:46;4.05;;;3.55;;
8791;SDS011;4432;50.890;4.744;2023-06-10T14:49:12;5.85;;;4.45;;
8791;SDS011;4432;50.890;4.744;2023-06-10T14:51:38;6.82;;;4.60;;
8791;SDS011;4432;50.890;4.744;2023-06-10T14:54:04;4.53;;;4.07;;
8791;SDS011;4432;50.890;4.744;2023-06-10T14:56:30;4.03;;;3.60;;
8791;SDS011;4432;50.890;4.744;2023-06-10T14:58:56;4.05;;;3.75;;
8791;SDS011;4432;50.890;4.744;2023-06-10T15:01:21;4.00;;;3.70;;
8791;SDS011;4432;50.890;4.744;2023-06-10T15:03:47;5.45;;;4.18;;
8791;SDS011;4432;50.890;4.744;2023-06-10T15:06:13;5.60;;;4.35;;
8791;SDS011;4432;50.890;4.744;2023-06-10T15:08:42;4.45;;;4.05;;
8791;SDS011;4432;50.890;4.744;2023-06-10T15:11:08;4.15;;;3.75;;
8791;SDS011;4432;50.890;4.744;2023-06-10T15:13:34;4.88;;;4.22;;
8791;SDS011;4432;50.890;4.744;2023-06-10T15:16:00;4.60;;;4.10;;
8791;SDS011;4432;50.890;4.744;2023-06-10T15:18:25;5.13;;;4.03;;
8791;SDS011;4432;50.890;4.744;2023-06-10T15:20:51;4.38;;;3.97;;
8791;SDS011;4432;50.890;4.744;2023-06-10T15:23:17;4.72;;;3.80;;
8791;SDS011;4432;50.890;4.744;2023-06-10T15:25:43;5.80;;;3.88;;
8791;SDS011;4432;50.890;4.744;2023-06-10T15:28:09;4.18;;;3.80;;
8791;SDS011;4432;50.890;4.744;2023-06-10T15:30:35;3.95;;;3.65;;
8791;SDS011;4432;50.890;4.744;2023-06-10T15:33:02;4.93;;;4.05;;
8791;SDS011;4432;50.890;4.744;2023-06-10T15:35:28;4.70;;;4.30;;
8791;SDS011;4432;50.890;4.744;2023-06-10T15:37:53;4.60;;;4.15;;
8791;SDS011;4432;50.890;4.744;2023-06-10T15:40:19;4.50;;;4.10;;
8791;SDS011;4432;50.890;4.744;2023-06-10T15:42:45;4.20;;;3.80;;
8791;SDS011;4432;50.890;4.744;2023-06-10T15:45:11;4.63;;;3.97;;